Sauk City, WI (53583)

9:58 PM CST on December 04, 2016 (GMT -0600)
Laws Drive | | Change Station

Elev 774 ft 43.24 °N, 89.80 °W | Updated 2 minutes ago

Overcast
Overcast
32.6 °F
Feels Like 33 °F
N
0.0
Wind Variable Wind from SW
Gusts 0.0 mph

Today
High -- | Low -- °F
--% Chance of Precip.
Yesterday
High -- | Low -- °F
Precip. -- in
Pressure 29.85 in
Visibility 10.0 miles
Clouds Overcast 600 ft
Windchill 33 °F
Dew Point 32 °F
Humidity 97%
Rainfall 0.00 in
Snow Depth Not available.
7:14 AM 4:23 PM
Waxing Crescent, 28% visible
METAR KC29 050335Z AUTO 26010KT 10SM OVC006 01/01 A2985 RMK AO1 T00080006
Pressure 29.85 in
Visibility 10.0 miles
Clouds Overcast 600 ft
Windchill 33 °F
Dew Point 32 °F
Humidity 97%
Rainfall 0.00 in
Snow Depth Not available.
7:14 AM 4:23 PM
Waxing Crescent, 28% visible
METAR KC29 050335Z AUTO 26010KT 10SM OVC006 01/01 A2985 RMK AO1 T00080006

10-Day Weather Forecast

Almanac

Astronomy

Dec. 04, 2016 Rise Set
Actual Time
Civil Twilight
Nautical Twilight
Astronomical Twilight
Moon
Length of Visible Light
Length of Day
Tomorrow will be .
, % of the Moon is Illuminated

Today's Extremes

State Highs State Lows

Community

WunderPhotos

Upload Photos

1,955,757 photos uploaded!

WunderBlog® & News

Nearby

Air Quality

  Air Quality AQ Index Pollutant
Not available.

Snow Depth

Station Depth Elevation

Earthquake Activity

City Distance Mag. Time & Date
Minimum magnitude displayed is 2.5.

Coastal Water Temperatures

Place Temperature

Stations

Nearby Weather Stations

Station Location Temp. Windchill Dew Point Humidity Wind Precip. Elev Updated Type
                   

Watches & Warnings

There are currently no watches in effect.